sensor_id;sensor_type;location;lat;lon;timestamp;pressure;altitude;pressure_sealevel;temperature;humidity
22755;BME280;11544;42.020;23.094;2023-07-31T01:29:23;96678.31;;;24.23;100.00
22755;BME280;11544;42.020;23.094;2023-07-31T01:32:06;96685.06;;;24.00;100.00
22755;BME280;11544;42.020;23.094;2023-07-31T01:34:34;96677.75;;;24.38;100.00
22755;BME280;11544;42.020;23.094;2023-07-31T01:37:02;96679.28;;;23.86;100.00
22755;BME280;11544;42.020;23.094;2023-07-31T01:39:37;96676.41;;;24.51;100.00
22755;BME280;11544;42.020;23.094;2023-07-31T01:42:04;96689.94;;;24.04;100.00
22755;BME280;11544;42.020;23.094;2023-07-31T01:44:56;96690.50;;;23.25;100.00
22755;BME280;11544;42.020;23.094;2023-07-31T01:47:23;96686.84;;;23.26;100.00
22755;BME280;11544;42.020;23.094;2023-07-31T01:50:04;96679.13;;;23.60;100.00
22755;BME280;11544;42.020;23.094;2023-07-31T01:52:31;96672.38;;;24.12;100.00
22755;BME280;11544;42.020;23.094;2023-07-31T01:54:58;96675.25;;;23.82;100.00
22755;BME280;11544;42.020;23.094;2023-07-31T01:57:25;96671.53;;;23.65;100.00
22755;BME280;11544;42.020;23.094;2023-07-31T02:00:00;96676.91;;;23.56;100.00
22755;BME280;11544;42.020;23.094;2023-07-31T02:02:30;96663.94;;;23.98;100.00
22755;BME280;11544;42.020;23.094;2023-07-31T02:04:58;96664.47;;;24.02;100.00
22755;BME280;11544;42.020;23.094;2023-07-31T06:09:53;96737.94;;;26.64;85.16
22755;BME280;11544;42.020;23.094;2023-07-31T06:12:31;96724.06;;;27.26;82.28
22755;BME280;11544;42.020;23.094;2023-07-31T06:15:17;96733.59;;;27.20;83.18
22755;BME280;11544;42.020;23.094;2023-07-31T06:17:48;96723.53;;;27.31;80.49
22755;BME280;11544;42.020;23.094;2023-07-31T06:20:23;96720.41;;;27.02;80.51
22755;BME280;11544;42.020;23.094;2023-07-31T06:22:56;96718.06;;;27.24;77.83
22755;BME280;11544;42.020;23.094;2023-07-31T06:25:25;96719.13;;;27.54;76.16
22755;BME280;11544;42.020;23.094;2023-07-31T06:28:06;96713.84;;;27.77;75.48
22755;BME280;11544;42.020;23.094;2023-07-31T10:04:26;96655.81;;;31.11;42.78
22755;BME280;11544;42.020;23.094;2023-07-31T10:10:44;96646.44;;;31.07;41.36
22755;BME280;11544;42.020;23.094;2023-07-31T10:13:19;96634.97;;;31.61;40.69
22755;BME280;11544;42.020;23.094;2023-07-31T10:15:49;96631.72;;;31.03;41.42
22755;BME280;11544;42.020;23.094;2023-07-31T10:18:16;96627.53;;;30.94;43.08
22755;BME280;11544;42.020;23.094;2023-07-31T10:20:50;96626.94;;;30.98;42.87
22755;BME280;11544;42.020;23.094;2023-07-31T10:23:22;96626.34;;;31.03;42.07
22755;BME280;11544;42.020;23.094;2023-07-31T10:25:53;96622.22;;;31.07;40.99
22755;BME280;11544;42.020;23.094;2023-07-31T10:28:21;96629.53;;;31.20;40.96
22755;BME280;11544;42.020;23.094;2023-07-31T10:30:48;96624.25;;;30.98;40.75
22755;BME280;11544;42.020;23.094;2023-07-31T10:33:16;96621.28;;;31.21;40.47
22755;BME280;11544;42.020;23.094;2023-07-31T10:35:47;96628.59;;;30.71;41.88
22755;BME280;11544;42.020;23.094;2023-07-31T10:38:20;96619.78;;;31.12;41.40
22755;BME280;11544;42.020;23.094;2023-07-31T10:40:50;96620.81;;;30.33;42.23
22755;BME280;11544;42.020;23.094;2023-07-31T10:43:23;96621.47;;;30.64;41.48
22755;BME280;11544;42.020;23.094;2023-07-31T10:45:55;96610.53;;;30.65;41.94
22755;BME280;11544;42.020;23.094;2023-07-31T10:48:33;96618.75;;;30.85;40.91
22755;BME280;11544;42.020;23.094;2023-07-31T10:51:13;96624.28;;;30.77;40.18
22755;BME280;11544;42.020;23.094;2023-07-31T10:54:10;96616.84;;;31.07;39.92
22755;BME280;11544;42.020;23.094;2023-07-31T11:00:46;96605.50;;;30.55;40.38
22755;BME280;11544;42.020;23.094;2023-07-31T11:02:58;96617.34;;;31.24;39.11
22755;BME280;11544;42.020;23.094;2023-07-31T11:08:32;96598.06;;;31.55;36.19
22755;BME280;11544;42.020;23.094;2023-07-31T11:11:14;96588.84;;;31.36;37.57
22755;BME280;11544;42.020;23.094;2023-07-31T11:13:54;96585.47;;;31.69;36.70
22755;BME280;11544;42.020;23.094;2023-07-31T12:48:27;96509.44;;;31.80;32.08
22755;BME280;11544;42.020;23.094;2023-07-31T17:24:56;96544.66;;;28.43;44.51
22755;BME280;11544;42.020;23.094;2023-07-31T17:27:37;96545.09;;;28.32;44.62
22755;BME280;11544;42.020;23.094;2023-07-31T17:30:09;96552.66;;;28.28;45.34
22755;BME280;11544;42.020;23.094;2023-07-31T17:32:35;96552.34;;;28.46;44.80
22755;BME280;11544;42.020;23.094;2023-07-31T17:35:02;96560.44;;;28.38;45.41
22755;BME280;11544;42.020;23.094;2023-07-31T17:37:30;96562.78;;;28.18;46.01
22755;BME280;11544;42.020;23.094;2023-07-31T17:39:58;96562.88;;;28.10;46.19
22755;BME280;11544;42.020;23.094;2023-07-31T17:42:25;96566.22;;;28.12;46.60
22755;BME280;11544;42.020;23.094;2023-07-31T17:44:53;96572.81;;;28.01;46.92
22755;BME280;11544;42.020;23.094;2023-07-31T17:47:20;96580.91;;;27.93;47.07
22755;BME280;11544;42.020;23.094;2023-07-31T17:49:47;96577.78;;;28.04;46.90
22755;BME280;11544;42.020;23.094;2023-07-31T17:52:14;96579.22;;;27.69;47.92
22755;BME280;11544;42.020;23.094;2023-07-31T17:54:41;96587.81;;;27.56;48.50
22755;BME280;11544;42.020;23.094;2023-07-31T17:57:10;96581.16;;;27.75;48.47
22755;BME280;11544;42.020;23.094;2023-07-31T17:59:42;96578.41;;;27.60;48.55
22755;BME280;11544;42.020;23.094;2023-07-31T18:02:11;96591.13;;;27.58;48.61
22755;BME280;11544;42.020;23.094;2023-07-31T18:05:07;96580.63;;;27.88;48.57
22755;BME280;11544;42.020;23.094;2023-07-31T18:07:34;96593.28;;;27.62;48.69
22755;BME280;11544;42.020;23.094;2023-07-31T18:10:01;96594.25;;;27.70;48.49
22755;BME280;11544;42.020;23.094;2023-07-31T18:12:29;96591.97;;;27.58;48.92
22755;BME280;11544;42.020;23.094;2023-07-31T18:14:55;96595.88;;;27.48;49.07
22755;BME280;11544;42.020;23.094;2023-07-31T18:17:23;96606.59;;;27.79;48.05
22755;BME280;11544;42.020;23.094;2023-07-31T18:19:52;96607.03;;;27.59;48.81
22755;BME280;11544;42.020;23.094;2023-07-31T18:22:19;96608.31;;;27.63;48.76
22755;BME280;11544;42.020;23.094;2023-07-31T18:24:46;96610.41;;;27.53;48.74
22755;BME280;11544;42.020;23.094;2023-07-31T18:27:12;96616.34;;;27.40;48.81
22755;BME280;11544;42.020;23.094;2023-07-31T18:29:44;96623.03;;;27.36;49.17
22755;BME280;11544;42.020;23.094;2023-07-31T18:32:11;96620.50;;;27.43;49.33
22755;BME280;11544;42.020;23.094;2023-07-31T18:34:39;96622.88;;;27.30;49.12
22755;BME280;11544;42.020;23.094;2023-07-31T18:37:05;96629.94;;;27.22;49.30
22755;BME280;11544;42.020;23.094;2023-07-31T18:39:33;96627.75;;;27.26;49.11
22755;BME280;11544;42.020;23.094;2023-07-31T18:42:00;96633.44;;;27.15;49.55
22755;BME280;11544;42.020;23.094;2023-07-31T18:44:27;96637.81;;;26.99;49.92
22755;BME280;11544;42.020;23.094;2023-07-31T18:46:53;96639.19;;;26.95;50.24
22755;BME280;11544;42.020;23.094;2023-07-31T18:49:20;96645.38;;;26.96;50.74
22755;BME280;11544;42.020;23.094;2023-07-31T18:51:47;96642.72;;;26.71;51.27
22755;BME280;11544;42.020;23.094;2023-07-31T18:54:14;96652.09;;;26.67;51.49
22755;BME280;11544;42.020;23.094;2023-07-31T18:56:41;96655.94;;;26.56;51.78
22755;BME280;11544;42.020;23.094;2023-07-31T18:59:09;96663.44;;;26.45;52.59
22755;BME280;11544;42.020;23.094;2023-07-31T19:01:36;96663.13;;;26.56;51.66
22755;BME280;11544;42.020;23.094;2023-07-31T19:04:03;96660.94;;;26.51;51.75
22755;BME280;11544;42.020;23.094;2023-07-31T19:06:31;96661.25;;;26.24;52.50
22755;BME280;11544;42.020;23.094;2023-07-31T19:09:00;96664.94;;;26.47;51.68
22755;BME280;11544;42.020;23.094;2023-07-31T19:11:28;96673.78;;;26.23;52.80
22755;BME280;11544;42.020;23.094;2023-07-31T19:13:58;96682.59;;;26.07;52.78
22755;BME280;11544;42.020;23.094;2023-07-31T19:16:26;96678.78;;;26.34;51.90
22755;BME280;11544;42.020;23.094;2023-07-31T19:18:53;96682.16;;;26.61;51.22
22755;BME280;11544;42.020;23.094;2023-07-31T19:21:20;96684.00;;;26.77;50.89
22755;BME280;11544;42.020;23.094;2023-07-31T19:23:46;96678.94;;;26.16;52.67
22755;BME280;11544;42.020;23.094;2023-07-31T19:26:13;96683.59;;;26.14;52.85
22755;BME280;11544;42.020;23.094;2023-07-31T19:28:40;96675.44;;;26.32;52.47
22755;BME280;11544;42.020;23.094;2023-07-31T19:31:07;96701.34;;;25.73;54.66
22755;BME280;11544;42.020;23.094;2023-07-31T19:33:34;96684.47;;;25.72;54.68
22755;BME280;11544;42.020;23.094;2023-07-31T19:36:01;96697.44;;;25.59;54.80
22755;BME280;11544;42.020;23.094;2023-07-31T19:38:28;96688.72;;;25.91;54.11
22755;BME280;11544;42.020;23.094;2023-07-31T19:40:57;96699.94;;;25.61;54.94
22755;BME280;11544;42.020;23.094;2023-07-31T19:43:28;96703.81;;;25.74;54.77
22755;BME280;11544;42.020;23.094;2023-07-31T20:02:11;96719.00;;;25.66;55.10
22755;BME280;11544;42.020;23.094;2023-07-31T20:04:39;96713.81;;;26.07;53.74
22755;BME280;11544;42.020;23.094;2023-07-31T20:07:07;96709.78;;;25.94;54.48
22755;BME280;11544;42.020;23.094;2023-07-31T20:09:34;96711.78;;;26.01;54.77
22755;BME280;11544;42.020;23.094;2023-07-31T20:12:01;96713.94;;;25.63;56.56
22755;BME280;11544;42.020;23.094;2023-07-31T20:14:30;96719.81;;;26.09;56.93
22755;BME280;11544;42.020;23.094;2023-07-31T20:17:01;96719.63;;;26.02;56.55
22755;BME280;11544;42.020;23.094;2023-07-31T20:19:28;96713.47;;;26.02;56.82
22755;BME280;11544;42.020;23.094;2023-07-31T20:21:55;96711.47;;;26.04;55.44
22755;BME280;11544;42.020;23.094;2023-07-31T20:24:22;96714.63;;;26.07;56.05
22755;BME280;11544;42.020;23.094;2023-07-31T20:26:50;96720.09;;;25.55;56.90
22755;BME280;11544;42.020;23.094;2023-07-31T20:29:17;96720.16;;;25.63;56.84
22755;BME280;11544;42.020;23.094;2023-07-31T20:31:49;96718.59;;;25.87;55.44
22755;BME280;11544;42.020;23.094;2023-07-31T20:34:16;96729.13;;;25.28;57.93
22755;BME280;11544;42.020;23.094;2023-07-31T20:36:51;96741.22;;;24.96;61.46
22755;BME280;11544;42.020;23.094;2023-07-31T20:39:18;96737.28;;;24.82;62.24
22755;BME280;11544;42.020;23.094;2023-07-31T20:41:45;96736.28;;;25.27;59.93
22755;BME280;11544;42.020;23.094;2023-07-31T20:44:13;96751.44;;;25.27;59.57
22755;BME280;11544;42.020;23.094;2023-07-31T20:46:41;96754.34;;;25.33;59.00
22755;BME280;11544;42.020;23.094;2023-07-31T20:49:09;96745.22;;;25.18;60.08
22755;BME280;11544;42.020;23.094;2023-07-31T20:51:36;96749.59;;;25.01;62.32
22755;BME280;11544;42.020;23.094;2023-07-31T20:54:12;96746.47;;;24.62;63.98
22755;BME280;11544;42.020;23.094;2023-07-31T20:56:39;96749.41;;;24.95;63.21
22755;BME280;11544;42.020;23.094;2023-07-31T20:59:17;96752.53;;;24.90;63.50
22755;BME280;11544;42.020;23.094;2023-07-31T21:01:44;96754.06;;;24.57;64.32
22755;BME280;11544;42.020;23.094;2023-07-31T21:04:11;96754.78;;;24.85;64.38
22755;BME280;11544;42.020;23.094;2023-07-31T21:06:39;96756.44;;;24.60;65.45
22755;BME280;11544;42.020;23.094;2023-07-31T21:09:06;96772.03;;;25.17;63.32
22755;BME280;11544;42.020;23.094;2023-07-31T21:11:34;96774.63;;;24.64;65.09
22755;BME280;11544;42.020;23.094;2023-07-31T21:14:02;96774.19;;;24.41;66.71
22755;BME280;11544;42.020;23.094;2023-07-31T21:16:29;96776.56;;;24.44;66.00
22755;BME280;11544;42.020;23.094;2023-07-31T21:19:05;96784.91;;;24.32;65.98
22755;BME280;11544;42.020;23.094;2023-07-31T21:21:32;96786.13;;;24.83;64.43
22755;BME280;11544;42.020;23.094;2023-07-31T21:24:00;96782.31;;;24.67;65.34
22755;BME280;11544;42.020;23.094;2023-07-31T21:26:30;96789.38;;;24.77;64.49
22755;BME280;11544;42.020;23.094;2023-07-31T21:28:57;96788.56;;;24.30;65.79
22755;BME280;11544;42.020;23.094;2023-07-31T21:31:24;96779.50;;;24.69;65.41
22755;BME280;11544;42.020;23.094;2023-07-31T21:33:51;96790.63;;;23.91;69.16
22755;BME280;11544;42.020;23.094;2023-07-31T21:36:18;96783.69;;;24.26;67.66
22755;BME280;11544;42.020;23.094;2023-07-31T21:38:45;96778.44;;;24.62;65.38
22755;BME280;11544;42.020;23.094;2023-07-31T21:41:12;96787.94;;;24.19;66.56
22755;BME280;11544;42.020;23.094;2023-07-31T21:43:39;96792.16;;;24.39;66.36
22755;BME280;11544;42.020;23.094;2023-07-31T21:46:06;96777.91;;;23.85;68.34
22755;BME280;11544;42.020;23.094;2023-07-31T21:48:34;96792.84;;;23.96;68.85
22755;BME280;11544;42.020;23.094;2023-07-31T21:51:07;96791.16;;;23.95;69.20
22755;BME280;11544;42.020;23.094;2023-07-31T21:53:39;96779.72;;;24.12;69.01
22755;BME280;11544;42.020;23.094;2023-07-31T21:56:06;96781.59;;;23.74;70.64
22755;BME280;11544;42.020;23.094;2023-07-31T21:58:36;96787.34;;;23.22;73.65
22755;BME280;11544;42.020;23.094;2023-07-31T22:01:06;96792.66;;;23.70;71.72
22755;BME280;11544;42.020;23.094;2023-07-31T22:03:33;96800.22;;;23.17;74.07
22755;BME280;11544;42.020;23.094;2023-07-31T22:06:00;96793.09;;;22.98;76.00
22755;BME280;11544;42.020;23.094;2023-07-31T22:08:27;96791.97;;;23.11;75.95
22755;BME280;11544;42.020;23.094;2023-07-31T22:10:54;96787.66;;;23.00;76.33
22755;BME280;11544;42.020;23.094;2023-07-31T22:13:21;96792.25;;;23.17;75.03
22755;BME280;11544;42.020;23.094;2023-07-31T22:15:48;96796.25;;;23.31;74.74
22755;BME280;11544;42.020;23.094;2023-07-31T22:18:15;96795.84;;;23.26;75.13
22755;BME280;11544;42.020;23.094;2023-07-31T22:20:47;96795.66;;;23.47;74.16
22755;BME280;11544;42.020;23.094;2023-07-31T22:23:13;96788.56;;;23.28;75.10
22755;BME280;11544;42.020;23.094;2023-07-31T22:25:41;96797.84;;;22.95;76.57
22755;BME280;11544;42.020;23.094;2023-07-31T22:28:08;96795.47;;;23.11;75.93
22755;BME280;11544;42.020;23.094;2023-07-31T22:30:46;96794.53;;;23.50;73.81
22755;BME280;11544;42.020;23.094;2023-07-31T22:33:13;96788.75;;;23.07;75.61
22755;BME280;11544;42.020;23.094;2023-07-31T22:35:41;96784.69;;;23.03;75.97
22755;BME280;11544;42.020;23.094;2023-07-31T22:38:08;96790.19;;;23.01;76.06
22755;BME280;11544;42.020;23.094;2023-07-31T22:40:34;96792.47;;;23.34;74.36
22755;BME280;11544;42.020;23.094;2023-07-31T22:43:01;96795.88;;;23.16;75.26
22755;BME280;11544;42.020;23.094;2023-07-31T22:45:28;96799.88;;;23.40;74.14
22755;BME280;11544;42.020;23.094;2023-07-31T22:47:55;96795.03;;;23.16;75.55
22755;BME280;11544;42.020;23.094;2023-07-31T22:50:30;96797.97;;;23.03;76.01
22755;BME280;11544;42.020;23.094;2023-07-31T22:52:58;96797.28;;;22.52;77.35
22755;BME280;11544;42.020;23.094;2023-07-31T22:55:25;96802.75;;;22.80;78.24
22755;BME280;11544;42.020;23.094;2023-07-31T22:57:52;96801.75;;;22.71;77.55
22755;BME280;11544;42.020;23.094;2023-07-31T23:00:19;96793.63;;;22.44;78.12
22755;BME280;11544;42.020;23.094;2023-07-31T23:02:46;96797.81;;;22.27;80.28
22755;BME280;11544;42.020;23.094;2023-07-31T23:05:13;96791.13;;;22.71;79.02
22755;BME280;11544;42.020;23.094;2023-07-31T23:07:40;96786.44;;;22.15;82.14
22755;BME280;11544;42.020;23.094;2023-07-31T23:10:07;96785.13;;;22.50;81.00
22755;BME280;11544;42.020;23.094;2023-07-31T23:12:34;96781.91;;;22.56;81.01
22755;BME280;11544;42.020;23.094;2023-07-31T23:15:01;96784.50;;;22.17;82.03
22755;BME280;11544;42.020;23.094;2023-07-31T23:17:27;96771.09;;;22.18;82.88
22755;BME280;11544;42.020;23.094;2023-07-31T23:19:54;96767.72;;;22.07;82.53
22755;BME280;11544;42.020;23.094;2023-07-31T23:22:21;96763.31;;;22.36;80.72
22755;BME280;11544;42.020;23.094;2023-07-31T23:24:48;96770.47;;;21.95;83.58
22755;BME280;11544;42.020;23.094;2023-07-31T23:27:14;96768.53;;;21.97;83.43
22755;BME280;11544;42.020;23.094;2023-07-31T23:29:41;96777.38;;;21.67;85.79
22755;BME280;11544;42.020;23.094;2023-07-31T23:32:09;96765.56;;;21.91;84.18
22755;BME280;11544;42.020;23.094;2023-07-31T23:34:37;96767.16;;;22.13;84.13
22755;BME280;11544;42.020;23.094;2023-07-31T23:37:04;96769.66;;;21.95;83.58
22755;BME280;11544;42.020;23.094;2023-07-31T23:39:31;96772.59;;;22.02;83.13
22755;BME280;11544;42.020;23.094;2023-07-31T23:41:58;96768.84;;;22.04;84.00
22755;BME280;11544;42.020;23.094;2023-07-31T23:44:25;96770.28;;;22.76;79.64
22755;BME280;11544;42.020;23.094;2023-07-31T23:46:52;96771.72;;;22.51;80.44
22755;BME280;11544;42.020;23.094;2023-07-31T23:49:19;96763.19;;;22.38;80.30
22755;BME280;11544;42.020;23.094;2023-07-31T23:51:45;96767.38;;;22.40;79.34
22755;BME280;11544;42.020;23.094;2023-07-31T23:54:12;96775.38;;;22.00;82.37
22755;BME280;11544;42.020;23.094;2023-07-31T23:56:39;96762.97;;;22.10;83.44
22755;BME280;11544;42.020;23.094;2023-07-31T23:59:09;96771.13;;;21.78;85.54
